Time;durP1;ratioP1;P1;durP2;ratioP2;P2;SDS_P1;SDS_P2;PMS_P1;PMS_P2;Temp;Humidity;BMP_temperature;BMP_pressure;BME280_temperature;BME280_humidity;BME280_pressure;Samples;Min_cycle;Max_cycle;Signal;HPM_P1;HPM_P2
2022/01/24 00:01:46;;;;;;;15.85;11.63;;;;;;;18.38;25.79;101084.09;5171317;27;20023;-64
2022/01/24 00:04:13;;;;;;;16.38;12.60;;;;;;;18.38;25.74;101084.09;5171185;27;20006;-67
2022/01/24 00:06:40;;;;;;;14.45;11.32;;;;;;;18.38;25.95;101078.72;5171310;27;20017;-73
2022/01/24 00:09:06;;;;;;;12.50;10.05;;;;;;;18.39;25.92;101085.78;5171067;27;20243;-66
2022/01/24 00:11:46;;;;;;;13.43;10.77;;;;;;;18.40;25.97;101092.03;5167407;27;20080;-70
2022/01/24 00:27:40;;;;;;;13.75;11.70;;;;;;;18.36;25.26;101095.94;5149919;27;20034;-67
2022/01/24 00:30:06;;;;;;;13.07;11.18;;;;;;;18.36;25.33;101090.59;5149936;27;20216;-65
2022/01/24 00:32:31;;;;;;;14.52;11.45;;;;;;;18.38;25.15;101088.63;5149836;27;20023;-68
2022/01/24 00:34:57;;;;;;;11.80;10.38;;;;;;;18.38;25.17;101089.44;5157658;27;20089;-67
2022/01/24 00:37:23;;;;;;;12.30;10.43;;;;;;;18.38;25.73;101091.31;5170151;27;20011;-66
2022/01/24 00:39:48;;;;;;;12.65;10.63;;;;;;;18.40;25.41;101089.34;5170537;27;20040;-66
2022/01/24 00:42:58;;;;;;;15.65;10.48;;;;;;;18.40;25.61;101090.19;5170314;27;20013;-65
2022/01/24 00:47:44;;;;;;;11.40;10.20;;;;;;;18.42;25.54;101095.41;5170242;27;20006;-64
2022/01/24 00:55:21;;;;;;;12.73;10.77;;;;;;;18.42;25.63;101109.66;5170228;27;20063;-66
2022/01/24 00:57:47;;;;;;;10.88;9.65;;;;;;;18.45;25.78;101112.06;5170190;27;20014;-70
2022/01/24 01:00:13;;;;;;;11.88;9.52;;;;;;;18.45;25.92;101111.25;5170199;27;20124;-72
2022/01/24 01:02:38;;;;;;;11.32;9.15;;;;;;;18.49;25.80;101107.28;5166966;27;20003;-69
2022/01/24 01:05:21;;;;;;;11.00;9.50;;;;;;;18.47;25.46;101101.22;5180152;27;20039;-70
2022/01/24 01:18:32;;;;;;;11.50;9.90;;;;;;;18.40;25.16;101095.53;5183216;27;20055;-71
2022/01/24 01:23:24;;;;;;;11.75;9.60;;;;;;;18.41;25.01;101094.56;5169577;27;20003;-69
2022/01/24 01:25:51;;;;;;;12.23;9.43;;;;;;;18.43;25.22;101086.41;5169797;27;20015;-67
2022/01/24 01:28:18;;;;;;;10.60;9.40;;;;;;;18.42;25.28;101085.53;5169656;27;20007;-69
2022/01/24 01:30:48;;;;;;;12.02;8.82;;;;;;;18.42;25.34;101084.69;5169649;27;20010;-67
2022/01/24 01:35:56;;;;;;;9.30;8.30;;;;;;;18.46;25.37;101094.16;5169446;27;20075;-69
2022/01/24 01:57:39;;;;;;;8.55;7.28;;;;;;;18.49;25.52;101109.13;5157321;27;20057;-70
2022/01/24 02:00:07;;;;;;;8.85;7.32;;;;;;;18.50;25.39;101108.16;5178206;27;20015;-72
2022/01/24 02:02:32;;;;;;;9.73;7.85;;;;;;;18.49;25.41;101109.13;5169220;27;20022;-70
2022/01/24 02:04:58;;;;;;;8.98;8.02;;;;;;;18.48;25.26;101124.34;5170119;27;20119;-68
2022/01/24 02:07:23;;;;;;;9.13;7.32;;;;;;;18.49;25.53;101115.31;5185819;27;20078;-64
2022/01/24 02:09:49;;;;;;;9.73;7.68;;;;;;;18.51;25.58;101112.53;5169236;27;20216;-71
2022/01/24 02:12:18;;;;;;;9.93;7.45;;;;;;;18.51;25.47;101120.56;5169085;27;20043;-70
2022/01/24 02:14:53;;;;;;;10.45;8.30;;;;;;;18.51;25.57;101126.75;5169204;27;20021;-70
2022/01/24 02:17:29;;;;;;;10.02;8.27;;;;;;;18.53;25.41;101121.28;5186266;27;20018;-69
2022/01/24 02:25:00;;;;;;;8.60;7.20;;;;;;;18.52;25.42;101116.91;5169433;27;20090;-70
2022/01/24 02:27:39;;;;;;;11.63;8.50;;;;;;;18.50;25.21;101125.06;5170547;27;20025;-69
2022/01/24 02:30:16;;;;;;;10.13;7.72;;;;;;;18.52;25.29;101122.28;5174767;27;20208;-69
2022/01/24 02:32:42;;;;;;;9.55;8.48;;;;;;;18.50;25.02;101122.38;5148157;27;20208;-70
2022/01/24 02:35:08;;;;;;;9.20;7.97;;;;;;;18.51;25.18;101121.41;5157540;27;20015;-69
2022/01/24 02:37:35;;;;;;;10.50;8.63;;;;;;;18.49;25.00;101117.16;5168926;27;20010;-69
2022/01/24 02:40:34;;;;;;;12.90;8.13;;;;;;;18.48;25.19;101115.47;5168695;27;20027;-69
2022/01/24 02:48:27;;;;;;;8.52;7.47;;;;;;;18.47;24.96;101119.97;5148400;27;20319;-71
2022/01/24 02:53:39;;;;;;;10.13;8.07;;;;;;;18.51;24.80;101126.75;5147884;27;19999;-70
2022/01/24 02:56:05;;;;;;;8.95;7.63;;;;;;;18.51;24.68;101118.72;5148048;28;20031;-70
2022/01/24 02:58:32;;;;;;;9.55;7.55;;;;;;;18.54;25.16;101114.91;5148022;27;20128;-70
2022/01/24 03:00:58;;;;;;;9.95;8.10;;;;;;;18.53;24.80;101127.50;5150655;27;20153;-70
2022/01/24 03:03:24;;;;;;;8.52;7.55;;;;;;;18.49;24.74;101115.31;5151664;27;20071;-70
2022/01/24 03:05:50;;;;;;;9.90;8.25;;;;;;;18.50;24.96;101125.06;5151552;27;20240;-72
2022/01/24 03:08:16;;;;;;;11.35;7.35;;;;;;;18.48;24.82;101124.34;5151584;27;20030;-70
2022/01/24 03:10:45;;;;;;;9.88;7.53;;;;;;;18.48;24.83;101116.31;5151460;27;20105;-71
2022/01/24 03:15:53;;;;;;;9.32;7.75;;;;;;;18.45;24.97;101117.44;5151714;27;20222;-70
2022/01/24 03:18:19;;;;;;;8.32;6.78;;;;;;;18.48;25.21;101104.75;5153062;27;20019;-72
2022/01/24 03:20:46;;;;;;;9.50;7.43;;;;;;;18.49;25.26;101104.59;5171692;27;20239;-70
2022/01/24 03:23:17;;;;;;;9.27;7.57;;;;;;;18.48;25.21;101105.59;5180530;27;20078;-72
2022/01/24 03:25:43;;;;;;;8.88;7.07;;;;;;;18.49;25.38;101109.13;5165067;27;20022;-71
2022/01/24 03:28:10;;;;;;;12.85;7.70;;;;;;;18.52;25.33;101117.75;5151188;27;20086;-70
2022/01/24 03:30:37;;;;;;;13.68;8.32;;;;;;;18.54;24.99;101104.19;5165062;27;20018;-72
2022/01/24 03:33:03;;;;;;;9.60;7.50;;;;;;;18.53;25.06;101095.31;5187807;27;20096;-72
2022/01/24 03:35:29;;;;;;;9.05;7.93;;;;;;;18.53;24.51;101083.75;5171993;27;20046;-72
2022/01/24 03:37:55;;;;;;;13.00;8.50;;;;;;;18.54;24.38;101083.63;5170991;27;20030;-71
2022/01/24 03:40:21;;;;;;;9.18;7.70;;;;;;;18.53;24.69;101081.09;5171867;27;20018;-70
2022/01/24 03:42:47;;;;;;;7.70;6.82;;;;;;;18.50;24.92;101068.78;5171483;27;20029;-71
2022/01/24 03:45:14;;;;;;;9.27;7.95;;;;;;;18.48;24.40;101073.41;5171839;27;20022;-71
2022/01/24 03:48:03;;;;;;;10.32;8.48;;;;;;;18.45;24.57;101081.75;5171702;27;20014;-71
2022/01/24 03:50:28;;;;;;;10.07;7.72;;;;;;;18.43;24.31;101095.28;5171499;27;20138;-69
2022/01/24 03:52:54;;;;;;;10.23;8.35;;;;;;;18.41;24.68;101083.00;5171363;27;20041;-72
2022/01/24 03:55:19;;;;;;;10.30;7.65;;;;;;;18.37;24.40;101085.09;5171466;27;20067;-69
2022/01/24 03:57:45;;;;;;;10.25;7.82;;;;;;;18.37;24.60;101078.88;5171438;27;20037;-73
2022/01/24 04:00:11;;;;;;;9.02;7.03;;;;;;;18.34;24.80;101077.34;5152010;27;20019;-72
2022/01/24 04:02:37;;;;;;;10.25;7.88;;;;;;;18.35;25.00;101067.44;5170842;27;20027;-73
2022/01/24 04:05:03;;;;;;;9.55;7.40;;;;;;;18.36;24.92;101074.50;5171344;27;20053;-73
2022/01/24 04:07:28;;;;;;;8.68;7.78;;;;;;;18.39;24.77;101095.69;5166576;27;20021;-70
2022/01/24 04:09:54;;;;;;;10.38;8.40;;;;;;;18.38;24.59;101099.34;5150420;27;20025;-71
2022/01/24 04:12:24;;;;;;;9.88;7.65;;;;;;;18.35;24.51;101092.44;5149304;27;20058;-71
2022/01/24 04:22:14;;;;;;;10.20;8.52;;;;;;;18.34;24.46;101081.81;5171212;27;20023;-73
2022/01/24 04:24:40;;;;;;;10.18;9.07;;;;;;;18.30;23.90;101087.47;5170912;27;20021;-73
2022/01/24 04:27:06;;;;;;;10.07;7.97;;;;;;;18.31;24.46;101082.94;5159357;27;20049;-71
2022/01/24 04:29:33;;;;;;;9.38;7.75;;;;;;;18.28;24.92;101084.06;5149823;27;20171;-72
2022/01/24 04:32:00;;;;;;;9.80;8.02;;;;;;;18.29;24.63;101080.41;5166518;27;20198;-71
2022/01/24 04:34:25;;;;;;;9.30;7.88;;;;;;;18.29;24.56;101079.56;5148968;27;20027;-72
2022/01/24 04:36:51;;;;;;;10.10;8.60;;;;;;;18.29;24.29;101083.09;5149990;27;20228;-71
2022/01/24 04:39:17;;;;;;;11.05;8.48;;;;;;;18.28;24.67;101080.53;5149837;27;20075;-73
2022/01/24 04:41:47;;;;;;;8.98;8.00;;;;;;;18.27;24.56;101082.38;5149877;27;20018;-72
2022/01/24 04:47:19;;;;;;;11.18;7.53;;;;;;;18.28;24.55;101088.56;5159895;27;20093;-75
2022/01/24 04:54:55;;;;;;;11.43;10.00;;;;;;;18.25;24.14;101084.34;5170244;27;20019;-71
2022/01/24 04:57:23;;;;;;;10.27;8.18;;;;;;;18.26;24.46;101094.06;5170270;27;20022;-72
2022/01/24 04:59:51;;;;;;;10.48;8.82;;;;;;;18.25;24.48;101091.50;5153707;27;20019;-71
2022/01/24 05:02:19;;;;;;;9.27;7.97;;;;;;;18.24;24.41;101096.03;5154013;27;20010;-74
2022/01/24 05:04:45;;;;;;;9.48;7.28;;;;;;;18.22;24.62;101089.13;5170148;27;20279;-73
2022/01/24 05:07:11;;;;;;;10.18;8.80;;;;;;;18.25;24.34;101094.19;5169789;27;20154;-71
2022/01/24 05:09:44;;;;;;;9.52;7.63;;;;;;;18.22;24.48;101100.66;5167520;27;20081;-72
2022/01/24 05:21:11;;;;;;;10.00;8.63;;;;;;;18.22;24.52;101106.03;5169822;27;20038;-73
2022/01/24 05:23:32;;;;;;;10.10;8.35;;;;;;;18.17;24.40;101102.06;5149000;27;20022;-74
2022/01/24 05:26:00;;;;;;;10.02;8.40;;;;;;;18.18;24.26;101107.25;5148885;27;20068;-74
2022/01/24 05:28:26;;;;;;;11.32;8.57;;;;;;;18.16;24.49;101111.91;5152378;27;20077;-72
2022/01/24 05:30:53;;;;;;;9.68;8.25;;;;;;;18.16;24.62;101109.22;5169704;27;20027;-73
2022/01/24 05:33:18;;;;;;;10.05;8.20;;;;;;;18.17;24.43;101118.13;5169244;27;20149;-73
2022/01/24 05:35:44;;;;;;;10.90;8.57;;;;;;;18.17;24.52;101113.59;5151475;27;20021;-70
2022/01/24 05:38:10;;;;;;;11.52;8.93;;;;;;;18.17;24.12;101121.63;5169607;27;20023;-72
2022/01/24 05:40:36;;;;;;;9.43;8.23;;;;;;;18.17;24.25;101113.59;5169618;27;20082;-69
2022/01/24 05:43:02;;;;;;;9.85;8.32;;;;;;;18.16;24.01;101122.63;5151058;27;20037;-70
2022/01/24 05:45:27;;;;;;;8.88;7.47;;;;;;;18.10;24.42;101126.66;5169560;27;20026;-71
2022/01/24 05:47:53;;;;;;;11.38;8.55;;;;;;;18.10;24.40;101125.84;5169404;27;20235;-71
2022/01/24 05:50:19;;;;;;;11.57;8.75;;;;;;;18.12;24.29;101127.41;5169386;27;20283;-73
2022/01/24 05:52:44;;;;;;;10.02;8.73;;;;;;;18.13;24.27;101123.75;5169240;27;20018;-70
2022/01/24 05:55:10;;;;;;;10.77;8.27;;;;;;;18.13;24.25;101125.59;5167108;27;20018;-72
2022/01/24 05:57:36;;;;;;;11.60;8.18;;;;;;;18.11;24.15;101117.66;5169239;27;20029;-72
2022/01/24 06:00:05;;;;;;;10.18;7.70;;;;;;;18.10;24.29;101115.13;5169452;27;20039;-73
2022/01/24 06:02:30;;;;;;;9.60;7.85;;;;;;;18.10;24.56;101115.13;5169323;27;20018;-73
2022/01/24 06:04:56;;;;;;;11.57;8.75;;;;;;;18.09;24.36;101121.47;5169417;27;20082;-73
2022/01/24 06:07:22;;;;;;;9.82;7.43;;;;;;;18.06;24.24;101121.72;5169377;27;20180;-73
2022/01/24 06:09:47;;;;;;;12.30;8.85;;;;;;;18.08;24.21;101122.44;5169344;27;20025;-72
2022/01/24 06:12:13;;;;;;;11.63;9.90;;;;;;;18.08;24.08;101119.75;5169118;27;20252;-73
2022/01/24 06:14:39;;;;;;;10.30;7.93;;;;;;;18.09;24.21;101114.25;5169161;27;20113;-72
2022/01/24 06:17:04;;;;;;;10.85;8.68;;;;;;;18.09;24.41;101118.78;5169181;27;20046;-73
2022/01/24 06:19:30;;;;;;;10.38;9.00;;;;;;;18.13;24.54;101113.03;5169119;27;20018;-73
2022/01/24 06:21:55;;;;;;;10.13;8.70;;;;;;;18.14;24.46;101122.75;5169245;27;20022;-73
2022/01/24 06:24:21;;;;;;;10.02;7.82;;;;;;;18.12;24.48;101116.69;5169119;27;20070;-72
2022/01/24 06:26:46;;;;;;;10.73;8.50;;;;;;;18.08;24.35;101117.09;5168983;27;20055;-71
2022/01/24 06:29:13;;;;;;;9.85;8.15;;;;;;;18.09;24.19;101119.63;5166572;27;20018;-69
2022/01/24 06:31:39;;;;;;;13.27;10.10;;;;;;;18.07;24.13;101113.56;5168706;27;20138;-71
2022/01/24 06:34:05;;;;;;;11.90;8.57;;;;;;;18.06;24.02;101117.22;5168673;27;20054;-72
2022/01/24 06:36:32;;;;;;;11.32;9.20;;;;;;;18.08;24.20;101119.75;5171027;27;20014;-71
2022/01/24 06:39:00;;;;;;;10.20;9.15;;;;;;;18.08;24.28;101119.75;5154094;27;20105;-72
2022/01/24 06:41:31;;;;;;;12.20;9.93;;;;;;;18.08;24.13;101122.44;5156958;27;20023;-71
2022/01/24 06:43:56;;;;;;;12.43;8.65;;;;;;;18.06;24.30;101119.03;5153041;27;20086;-72
2022/01/24 06:46:23;;;;;;;12.73;10.45;;;;;;;18.07;24.15;101120.75;5155695;27;20034;-73
2022/01/24 06:48:48;;;;;;;11.65;8.98;;;;;;;18.06;24.42;101116.34;5170899;27;20042;-72
2022/01/24 06:51:14;;;;;;;12.38;9.35;;;;;;;18.06;24.21;101122.59;5156128;27;20030;-71
2022/01/24 06:53:41;;;;;;;11.32;8.57;;;;;;;18.11;24.58;101130.22;5151732;27;20027;-74
2022/01/24 06:56:07;;;;;;;11.25;8.70;;;;;;;18.13;24.66;101123.75;5152014;27;20083;-72
2022/01/24 06:58:34;;;;;;;10.68;8.50;;;;;;;18.13;24.59;101126.41;5156201;27;20183;-72
2022/01/24 07:01:01;;;;;;;10.25;8.75;;;;;;;18.13;24.74;101120.22;5151512;27;20026;-72
2022/01/24 07:03:26;;;;;;;14.05;8.23;;;;;;;18.13;24.90;101122.91;5151422;27;20120;-71
2022/01/24 07:05:52;;;;;;;11.73;8.30;;;;;;;18.13;24.88;101125.59;5164515;27;20015;-74
2022/01/24 07:08:18;;;;;;;9.45;8.27;;;;;;;18.13;24.65;101123.75;5172359;27;20038;-71
2022/01/24 07:10:43;;;;;;;10.00;8.55;;;;;;;18.11;24.72;101119.50;5172133;27;20031;-71
2022/01/24 07:13:09;;;;;;;12.10;8.60;;;;;;;18.11;24.86;101131.06;5166937;27;20153;-72
2022/01/24 07:15:40;;;;;;;11.65;9.10;;;;;;;18.12;24.40;101131.91;5151850;27;20030;-71
2022/01/24 07:18:57;;;;;;;9.85;7.90;;;;;;;18.11;24.68;101132.91;5154166;27;20074;-72
2022/01/24 07:21:00;;;;;;;11.80;10.20;;;;;;;18.10;24.20;101136.56;5191773;27;20022;-71
2022/01/24 07:23:26;;;;;;;11.10;9.50;;;;;;;18.13;24.09;101133.63;5193102;27;20026;-70
2022/01/24 07:25:52;;;;;;;11.13;8.55;;;;;;;18.17;24.20;101135.03;5193214;27;20108;-71
2022/01/24 07:28:18;;;;;;;9.38;8.07;;;;;;;18.18;24.40;101135.91;5193162;27;20063;-74
2022/01/24 07:30:45;;;;;;;9.80;7.95;;;;;;;18.17;24.63;101135.03;5193044;27;20017;-74
2022/01/24 07:33:11;;;;;;;12.65;10.13;;;;;;;18.14;23.99;101132.63;5174355;27;20091;-74
2022/01/24 07:35:36;;;;;;;12.43;8.52;;;;;;;18.11;24.56;101130.22;5171986;27;20042;-72
2022/01/24 07:38:05;;;;;;;12.10;9.70;;;;;;;18.10;23.96;101131.19;5171884;27;20047;-73
2022/01/24 07:40:36;;;;;;;11.05;9.40;;;;;;;18.12;24.01;101129.25;5171561;27;20018;-76
2022/01/24 07:43:10;;;;;;;;;;;;;;;18.02;24.25;101130.97;5153739;27;20219;-73
2022/01/24 07:45:37;;;;;;;12.32;9.10;;;;;;;17.99;23.84;101122.25;5171574;27;19902;-75
2022/01/24 07:48:04;;;;;;;10.45;8.50;;;;;;;18.03;24.05;101124.66;5170746;27;20063;-72
2022/01/24 07:50:30;;;;;;;11.70;9.40;;;;;;;18.01;23.71;101127.47;5168333;27;20021;-72
2022/01/24 07:52:55;;;;;;;10.48;8.32;;;;;;;18.01;23.86;101130.16;5171377;27;20014;-72
2022/01/24 07:55:27;;;;;;;11.70;9.25;;;;;;;17.99;23.86;101130.28;5168821;27;20026;-71
2022/01/24 07:57:53;;;;;;;10.18;8.02;;;;;;;18.02;24.14;101126.50;5150732;27;20050;-75
2022/01/24 08:00:19;;;;;;;10.32;8.20;;;;;;;18.07;24.27;101123.41;5150876;27;20247;-73
2022/01/24 08:02:44;;;;;;;10.15;8.15;;;;;;;18.10;24.36;101121.31;5165249;27;20255;-75
2022/01/24 08:05:11;;;;;;;11.15;8.82;;;;;;;18.12;24.28;101116.69;5171236;27;20073;-74
2022/01/24 08:07:38;;;;;;;10.85;8.27;;;;;;;18.12;24.34;101113.16;5161883;27;20046;-77
2022/01/24 08:10:06;;;;;;;11.32;9.60;;;;;;;18.13;24.31;101114.88;5184808;27;20022;-75
2022/01/24 08:12:32;;;;;;;9.23;8.23;;;;;;;18.16;24.47;101111.91;5191701;27;20163;-77
2022/01/24 08:15:00;;;;;;;10.10;8.55;;;;;;;18.16;24.07;101114.56;5185168;27;20018;-69
2022/01/24 08:17:26;;;;;;;11.70;9.18;;;;;;;18.15;24.18;101107.56;5149978;27;20216;-74
2022/01/24 08:19:52;;;;;;;10.50;8.77;;;;;;;18.14;24.32;101121.94;5172284;27;20021;-73
2022/01/24 08:22:18;;;;;;;10.77;8.80;;;;;;;18.15;24.08;101119.09;5161266;27;20025;-74
2022/01/24 08:24:45;;;;;;;10.27;8.75;;;;;;;18.14;24.18;101114.72;5170678;27;20029;-73
2022/01/24 08:27:10;;;;;;;9.77;8.55;;;;;;;18.15;24.17;101115.59;5170771;27;20014;-74
2022/01/24 08:29:36;;;;;;;10.48;9.15;;;;;;;18.13;24.18;101113.03;5168715;27;20284;-72
2022/01/24 08:32:01;;;;;;;11.05;8.90;;;;;;;18.15;24.14;101118.28;5162466;27;20019;-75
2022/01/24 08:34:27;;;;;;;10.93;9.40;;;;;;;18.18;24.11;101115.31;5170660;27;20011;-74
2022/01/24 08:36:53;;;;;;;9.50;8.40;;;;;;;18.20;24.24;101117.88;5170670;27;20228;-71
2022/01/24 08:39:18;;;;;;;12.35;9.75;;;;;;;18.21;23.91;101116.88;5151713;27;20022;-72
2022/01/24 08:41:59;;;;;;;11.18;8.32;;;;;;;18.24;24.22;101116.59;5143407;27;20140;-72
2022/01/24 08:45:43;;;;;;;10.60;7.97;;;;;;;18.21;24.37;101115.03;5153813;27;20078;-71
2022/01/24 08:47:19;;;;;;;11.93;8.90;;;;;;;18.20;24.18;101110.66;5149509;27;20320;-74
2022/01/24 08:49:45;;;;;;;14.63;9.40;;;;;;;18.19;23.97;101111.66;5154100;27;20027;-71
2022/01/24 08:52:10;;;;;;;15.07;10.90;;;;;;;18.17;23.21;101108.25;5149576;27;20034;-73
2022/01/24 08:54:36;;;;;;;11.15;8.75;;;;;;;18.18;23.63;101107.25;5159089;27;20063;-71
2022/01/24 08:57:03;;;;;;;12.55;9.30;;;;;;;18.19;23.51;101106.28;5170230;27;20025;-73
2022/01/24 08:59:31;;;;;;;14.20;9.63;;;;;;;18.18;23.67;101103.75;5152258;27;20191;-71
2022/01/24 09:01:57;;;;;;;11.45;9.80;;;;;;;18.17;23.63;101105.56;5167381;27;20017;-71
2022/01/24 09:04:23;;;;;;;12.70;9.63;;;;;;;18.17;23.92;101102.06;5149507;27;20007;-70
2022/01/24 09:06:50;;;;;;;11.18;8.57;;;;;;;18.20;23.88;101091.06;5153797;27;20202;-75
2022/01/24 09:09:16;;;;;;;11.65;9.50;;;;;;;18.21;23.97;101093.59;5153599;27;20033;-74
2022/01/24 09:11:42;;;;;;;10.27;9.18;;;;;;;18.23;23.94;101097.00;5149239;27;20184;-75
2022/01/24 09:14:08;;;;;;;12.18;10.00;;;;;;;18.22;23.69;101094.47;5149005;27;20029;-74
2022/01/24 09:16:34;;;;;;;13.35;9.70;;;;;;;18.25;23.57;101096.88;5159243;27;20022;-77
2022/01/24 09:19:00;;;;;;;10.25;8.30;;;;;;;18.26;23.98;101090.53;5151079;27;20018;-77
2022/01/24 09:21:28;;;;;;;10.80;8.90;;;;;;;18.25;23.87;101083.47;5169409;27;20087;-75
2022/01/24 09:23:54;;;;;;;11.57;8.43;;;;;;;18.26;24.21;101095.88;5166679;27;20027;-72
2022/01/24 09:26:20;;;;;;;13.18;9.93;;;;;;;18.24;23.72;101092.47;5162529;27;20073;-75
2022/01/24 09:28:46;;;;;;;11.45;8.98;;;;;;;18.26;23.69;101082.50;5169551;27;20049;-72
2022/01/24 09:31:11;;;;;;;11.93;8.65;;;;;;;18.25;23.96;101078.97;5169523;27;20011;-73
2022/01/24 09:33:37;;;;;;;11.52;9.30;;;;;;;18.26;23.84;101087.84;5157471;27;20033;-75
2022/01/24 09:36:04;;;;;;;10.27;8.80;;;;;;;18.27;24.19;101087.72;5148908;27;20027;-74
2022/01/24 09:38:34;;;;;;;9.57;8.18;;;;;;;18.33;24.13;101085.47;5148870;27;20021;-75
2022/01/24 09:41:05;;;;;;;12.70;11.02;;;;;;;18.33;23.74;101074.75;5148853;27;20015;-73
2022/01/24 09:43:32;;;;;;;11.68;9.63;;;;;;;18.29;23.38;101077.75;5148792;27;20031;-73
2022/01/24 09:45:59;;;;;;;12.05;10.13;;;;;;;18.27;23.64;101077.00;5160210;27;20375;-73
2022/01/24 09:48:25;;;;;;;12.40;9.70;;;;;;;18.28;23.56;101076.03;5169507;27;20086;-74
2022/01/24 09:50:52;;;;;;;11.45;9.40;;;;;;;18.28;23.77;101073.34;5169467;27;20054;-74
2022/01/24 09:53:20;;;;;;;10.43;9.07;;;;;;;18.27;23.97;101073.47;5169320;27;20018;-73
2022/01/24 09:55:46;;;;;;;11.35;8.88;;;;;;;18.31;23.87;101061.50;5170377;27;20071;-72
2022/01/24 09:58:11;;;;;;;11.13;9.13;;;;;;;18.33;24.06;101058.69;5177827;27;20216;-75
2022/01/24 10:00:38;;;;;;;12.15;9.65;;;;;;;18.36;23.85;101058.44;5169449;27;20128;-72
2022/01/24 10:03:04;;;;;;;12.00;10.02;;;;;;;18.40;23.43;101058.00;5169337;27;20021;-72
2022/01/24 10:05:37;;;;;;;9.15;7.80;;;;;;;18.44;23.95;101055.94;5169311;27;20014;-74
2022/01/24 10:08:05;;;;;;;10.70;8.30;;;;;;;18.44;24.13;101055.94;5167812;27;20011;-74
2022/01/24 10:10:46;;;;;;;10.30;9.05;;;;;;;18.52;24.02;101050.72;5171109;27;20073;-74
2022/01/24 10:16:48;;;;;;;11.45;8.98;;;;;;;18.49;24.31;101047.47;5173558;27;20025;-71
2022/01/24 10:19:22;;;;;;;10.02;8.35;;;;;;;18.48;24.41;101046.63;5161014;27;20031;-72
2022/01/24 10:21:53;;;;;;;11.18;9.02;;;;;;;18.48;24.44;101041.25;5152524;27;20023;-73
2022/01/24 10:24:33;;;;;;;11.52;10.32;;;;;;;18.50;23.97;101044.66;5152521;27;20057;-74
2022/01/24 10:27:18;;;;;;;11.07;9.23;;;;;;;18.50;24.17;101039.28;5152638;27;20220;-74
2022/01/24 10:29:56;;;;;;;11.25;9.13;;;;;;;18.53;24.06;101038.19;5152476;27;20026;-72
2022/01/24 10:32:42;;;;;;;12.07;10.52;;;;;;;18.53;23.89;101027.47;5152246;27;20035;-74
2022/01/24 10:35:31;;;;;;;11.13;9.20;;;;;;;18.54;23.96;101024.66;5152385;27;20144;-73
2022/01/24 10:38:34;;;;;;;11.23;8.50;;;;;;;18.59;24.29;101033.13;5152302;27;20023;-73
2022/01/24 10:43:41;;;;;;;9.93;8.75;;;;;;;18.57;23.78;101021.69;5152030;27;20094;-72
2022/01/24 10:46:07;;;;;;;11.05;9.40;;;;;;;18.59;24.10;101027.78;5167635;27;20022;-71
2022/01/24 10:48:39;;;;;;;12.13;10.00;;;;;;;18.53;23.90;101011.41;5170835;27;20014;-70
2022/01/24 10:51:05;;;;;;;10.35;8.95;;;;;;;18.57;23.98;101005.63;5172932;27;20185;-72
2022/01/24 10:53:36;;;;;;;11.30;10.02;;;;;;;18.58;24.26;101015.34;5172048;27;20014;-72
2022/01/24 10:56:03;;;;;;;12.02;9.65;;;;;;;18.58;23.83;101007.31;5172605;27;20010;-75
2022/01/24 10:58:34;;;;;;;10.38;9.27;;;;;;;18.58;24.07;101003.78;5170384;27;20010;-70
2022/01/24 11:00:59;;;;;;;;;;;;;;;18.53;24.36;101006.03;5169019;27;20029;-73
2022/01/24 11:03:25;;;;;;;12.30;9.27;;;;;;;18.58;24.25;100993.91;5172578;27;20019;-70
2022/01/24 11:05:51;;;;;;;12.43;9.50;;;;;;;18.59;23.96;100998.28;5172494;27;20266;-73
2022/01/24 11:08:17;;;;;;;12.10;9.68;;;;;;;18.61;24.00;101009.69;5172306;27;20018;-73
2022/01/24 11:10:44;;;;;;;11.65;9.93;;;;;;;18.63;24.17;101001.53;5172400;27;20038;-73
2022/01/24 11:13:11;;;;;;;11.90;10.10;;;;;;;18.59;23.91;100995.59;5172139;27;20131;-73
2022/01/24 11:15:42;;;;;;;12.20;9.32;;;;;;;18.59;24.24;100994.75;5154145;27;20010;-73
2022/01/24 11:18:09;;;;;;;10.68;9.57;;;;;;;18.56;24.07;100997.69;5172176;27;20014;-72
2022/01/24 11:20:40;;;;;;;10.70;9.45;;;;;;;18.53;24.01;101004.19;5171981;27;20058;-70
2022/01/24 11:23:06;;;;;;;14.32;10.93;;;;;;;18.53;23.53;101003.34;5172003;27;20228;-72
2022/01/24 11:25:38;;;;;;;11.50;9.90;;;;;;;18.52;24.17;100996.28;5172148;27;20097;-74
2022/01/24 11:28:04;;;;;;;13.43;10.75;;;;;;;18.52;23.89;100998.97;5171975;27;20019;-72
2022/01/24 11:30:38;;;;;;;11.20;9.90;;;;;;;18.55;23.89;100998.69;5169335;27;20025;-72
2022/01/24 11:33:08;;;;;;;11.13;10.00;;;;;;;18.60;23.46;100997.28;5171833;27;20029;-71
2022/01/24 11:35:43;;;;;;;10.73;9.20;;;;;;;18.59;23.83;100990.25;5170034;27;20019;-71
2022/01/24 11:38:29;;;;;;;10.40;8.82;;;;;;;18.56;23.68;100982.47;5151140;27;20023;-75
2022/01/24 11:41:05;;;;;;;11.45;8.85;;;;;;;18.58;24.06;100977.81;5150730;27;20152;-70
2022/01/24 11:43:40;;;;;;;12.15;10.40;;;;;;;18.57;23.48;100977.94;5151073;27;20289;-74
2022/01/24 11:46:28;;;;;;;11.45;9.85;;;;;;;18.51;23.35;100975.84;5155819;27;20034;-72
2022/01/24 11:49:05;;;;;;;11.23;9.13;;;;;;;18.55;23.74;100971.88;5150744;27;20027;-71
2022/01/24 11:51:33;;;;;;;12.48;10.73;;;;;;;18.54;23.65;100970.19;5150620;27;20132;-73
2022/01/24 11:53:59;;;;;;;11.90;9.63;;;;;;;18.53;23.57;100969.34;5155196;27;20023;-71
2022/01/24 11:56:31;;;;;;;12.63;9.07;;;;;;;18.51;23.89;100957.91;5151393;27;20031;-75
2022/01/24 11:59:22;;;;;;;11.98;10.60;;;;;;;18.50;23.57;100958.06;5171431;27;20136;-73
2022/01/24 12:02:07;;;;;;;12.05;10.60;;;;;;;18.44;23.53;100951.41;5170826;27;20077;-72
2022/01/24 12:04:56;;;;;;;12.73;8.63;;;;;;;18.43;24.63;100949.72;5169382;27;20018;-70
2022/01/24 12:07:25;;;;;;;13.00;9.75;;;;;;;18.36;24.78;100941.38;5170095;27;20219;-71
2022/01/24 12:09:52;;;;;;;13.27;10.38;;;;;;;18.23;24.74;100946.16;5171170;27;20015;-71
2022/01/24 12:12:42;;;;;;;13.07;10.82;;;;;;;18.07;25.05;100942.16;5170508;27;20050;-74
2022/01/24 12:15:09;;;;;;;14.18;10.88;;;;;;;17.90;25.18;100935.53;5171086;27;20018;-74
2022/01/24 12:17:47;;;;;;;12.85;11.02;;;;;;;17.74;25.07;100941.41;5171087;27;20192;-73
2022/01/24 12:20:31;;;;;;;14.18;11.15;;;;;;;17.58;25.32;100931.16;5170041;27;20088;-73
2022/01/24 12:22:57;;;;;;;14.38;11.32;;;;;;;17.48;25.57;100927.59;5170851;27;20055;-75
2022/01/24 12:26:08;;;;;;;11.93;10.30;;;;;;;17.39;25.90;100930.09;5170731;27;20144;-75
2022/01/24 12:28:42;;;;;;;18.60;12.50;;;;;;;17.28;25.84;100938.16;5170779;27;20085;-75
2022/01/24 12:31:38;;;;;;;15.73;12.45;;;;;;;17.29;25.78;100936.34;5170778;27;20087;-74
2022/01/24 12:34:13;;;;;;;15.20;11.98;;;;;;;17.27;26.02;100936.50;5152279;27;20170;-73
2022/01/24 12:37:20;;;;;;;14.50;12.27;;;;;;;17.23;26.10;100935.03;5170685;27;20014;-72
2022/01/24 12:39:46;;;;;;;15.40;12.05;;;;;;;17.24;26.34;100936.75;5162306;27;20077;-73
2022/01/24 12:42:25;;;;;;;18.80;12.05;;;;;;;17.15;27.44;100937.50;5170610;27;20143;-73
2022/01/24 12:47:20;;;;;;;13.93;11.23;;;;;;;17.00;27.99;100936.97;5163603;27;20113;-74
2022/01/24 12:49:47;;;;;;;17.02;11.57;;;;;;;16.98;27.93;100942.47;5169068;27;20022;-72
2022/01/24 12:52:17;;;;;;;17.30;13.00;;;;;;;16.91;27.34;100944.75;5170215;27;20112;-72
2022/01/24 12:54:52;;;;;;;16.75;10.73;;;;;;;16.90;27.84;100947.56;5170140;27;20010;-72
2022/01/24 12:57:21;;;;;;;13.70;10.77;;;;;;;16.83;27.57;100952.56;5170205;27;20128;-70
2022/01/24 12:59:57;;;;;;;15.07;12.18;;;;;;;16.77;27.71;100953.91;5170275;27;20026;-71
2022/01/24 13:02:29;;;;;;;15.68;11.73;;;;;;;16.67;27.37;100952.13;5170008;27;20120;-70
2022/01/24 13:05:20;;;;;;;15.52;11.55;;;;;;;16.65;28.18;100944.25;5151766;27;20030;-73
2022/01/24 13:07:55;;;;;;;14.95;12.07;;;;;;;16.54;27.76;100929.09;5169814;27;20022;-69
2022/01/24 13:10:27;;;;;;;13.98;10.88;;;;;;;16.53;28.29;100931.91;5169982;27;20031;-75
2022/01/24 13:12:59;;;;;;;15.68;11.85;;;;;;;16.51;28.28;100933.84;5162581;27;20035;-73